Time;durP1;ratioP1;P1;durP2;ratioP2;P2;SDS_P1;SDS_P2;PMS_P1;PMS_P2;Temp;Humidity;BMP_temperature;BMP_pressure;BME280_temperature;BME280_humidity;BME280_pressure;Samples;Min_cycle;Max_cycle;Signal;HPM_P1;HPM_P2
2022/09/27 00:00:05;;;;;;;0.50;0.50;;;;;;;11.23;80.30;99063.81;5108270;28;20960;-80
2022/09/27 00:02:35;;;;;;;0.50;0.50;;;;;;;11.26;79.89;99063.66;5122804;28;20034;-80
2022/09/27 00:05:06;;;;;;;3.00;1.30;;;;;;;11.19;80.59;99059.69;5106709;28;20077;-80
2022/09/27 00:07:37;;;;;;;0.40;0.40;;;;;;;11.21;80.64;99062.22;5108258;28;20042;-79
2022/09/27 00:10:08;;;;;;;0.32;0.32;;;;;;;11.21;80.38;99064.84;5127925;28;20695;-80
2022/09/27 00:12:38;;;;;;;0.22;0.22;;;;;;;11.23;80.29;99070.88;5113553;28;20042;-80
2022/09/27 00:15:09;;;;;;;1.35;0.77;;;;;;;11.16;80.82;99078.22;5115869;28;20046;-80
2022/09/27 00:17:40;;;;;;;0.65;0.65;;;;;;;11.32;80.05;99079.06;5135721;28;20038;-80
2022/09/27 00:20:10;;;;;;;0.22;0.22;;;;;;;11.29;79.93;99084.47;5147785;28;20125;-80
2022/09/27 00:22:41;;;;;;;3.30;0.75;;;;;;;11.10;80.76;99089.06;5136925;28;20030;-79
2022/09/27 00:25:12;;;;;;;0.20;0.20;;;;;;;11.16;81.01;99086.09;5115072;28;20146;-79
2022/09/27 00:27:42;;;;;;;0.30;0.30;;;;;;;11.24;80.00;99091.78;5117860;28;20122;-79
2022/09/27 00:30:13;;;;;;;0.20;0.20;;;;;;;11.28;80.16;99093.28;5116424;28;20042;-80
2022/09/27 00:32:43;;;;;;;0.38;0.38;;;;;;;11.22;80.30;99088.38;5132878;28;20069;-80
2022/09/27 00:35:15;;;;;;;0.30;0.30;;;;;;;11.17;79.58;99091.25;5117344;28;20057;-79
2022/09/27 00:37:47;;;;;;;0.20;0.20;;;;;;;11.28;79.52;99095.91;5119627;28;20046;-80
2022/09/27 00:40:22;;;;;;;0.30;0.30;;;;;;;11.13;80.49;99102.88;5134868;28;20046;-81
2022/09/27 00:42:53;;;;;;;0.20;0.20;;;;;;;11.09;80.86;99096.09;5126412;28;20121;-80
2022/09/27 00:45:23;;;;;;;0.30;0.30;;;;;;;11.20;79.71;99098.09;5132624;28;20034;-79
2022/09/27 00:48:03;;;;;;;0.20;0.20;;;;;;;11.11;80.95;99101.28;5133341;28;20085;-80
2022/09/27 00:50:42;;;;;;;0.57;0.57;;;;;;;11.17;80.21;99099.13;5114534;28;20111;-80
2022/09/27 00:53:26;;;;;;;0.20;0.20;;;;;;;11.10;80.68;99105.66;5112966;28;20142;-80
2022/09/27 00:56:01;;;;;;;0.40;0.40;;;;;;;11.18;79.83;99102.63;5102920;28;20046;-79
2022/09/27 00:58:38;;;;;;;0.20;0.20;;;;;;;11.10;80.14;99103.03;5091199;28;20042;-80
2022/09/27 01:01:11;;;;;;;0.30;0.30;;;;;;;11.03;81.59;99107.75;5110426;28;20770;-80
2022/09/27 01:03:59;;;;;;;0.30;0.30;;;;;;;11.18;80.15;99102.63;5129441;28;20086;-80
2022/09/27 01:06:30;;;;;;;0.20;0.20;;;;;;;11.23;79.41;99105.00;5095903;28;20093;-81
2022/09/27 01:09:01;;;;;;;0.47;0.47;;;;;;;11.20;79.86;99098.09;5129742;28;20086;-80
2022/09/27 01:11:40;;;;;;;0.20;0.20;;;;;;;11.22;79.43;99108.53;5100763;28;20038;-80
2022/09/27 01:14:22;;;;;;;0.30;0.30;;;;;;;11.20;79.88;99105.97;5102362;28;20047;-79
2022/09/27 01:17:01;;;;;;;0.22;0.22;;;;;;;11.10;80.45;99115.31;5102232;28;20062;-80
2022/09/27 01:19:53;;;;;;;0.20;0.20;;;;;;;11.11;80.62;99117.03;5096096;28;20046;-79
2022/09/27 01:22:50;;;;;;;0.30;0.30;;;;;;;11.13;80.29;99109.88;5133820;28;20050;-80
2022/09/27 01:25:32;;;;;;;0.25;0.25;;;;;;;11.06;81.04;99116.41;5103803;28;20054;-81
2022/09/27 01:28:32;;;;;;;0.20;0.20;;;;;;;11.12;80.96;99126.56;5093775;28;20437;-79
2022/09/27 01:31:33;;;;;;;0.20;0.20;;;;;;;11.21;79.38;99126.06;5108863;28;20047;-79
2022/09/27 01:34:18;;;;;;;0.88;0.75;;;;;;;11.02;80.52;99124.47;5107592;28;20133;-79
2022/09/27 01:37:01;;;;;;;0.40;0.40;;;;;;;11.11;80.02;99117.03;5098413;28;20049;-79
2022/09/27 01:39:43;;;;;;;0.20;0.20;;;;;;;11.01;80.61;99138.53;5113179;28;20462;-80
2022/09/27 01:42:30;;;;;;;0.50;0.50;;;;;;;10.99;80.82;99124.63;5094562;28;20063;-80
2022/09/27 01:45:13;;;;;;;0.40;0.40;;;;;;;10.94;81.96;99116.16;5144087;28;20054;-79
2022/09/27 01:47:51;;;;;;;0.23;0.23;;;;;;;11.05;80.67;99123.44;5117945;28;20023;-80
2022/09/27 01:50:31;;;;;;;0.40;0.40;;;;;;;10.94;81.37;99120.56;5127311;28;20293;-80
2022/09/27 01:53:13;;;;;;;0.30;0.30;;;;;;;10.90;81.59;99125.13;5149039;28;20031;-79
2022/09/27 01:55:47;;;;;;;0.25;0.25;;;;;;;10.96;80.62;99119.53;5142993;28;20045;-79
2022/09/27 01:58:30;;;;;;;0.30;0.30;;;;;;;10.93;80.96;99124.09;5185705;28;20074;-79
2022/09/27 02:01:02;;;;;;;0.57;0.57;;;;;;;11.01;79.95;99130.66;5144874;28;20081;-80
2022/09/27 02:03:36;;;;;;;0.20;0.20;;;;;;;11.03;79.71;99126.13;5152033;28;20039;-79
2022/09/27 02:06:18;;;;;;;0.20;0.20;;;;;;;10.92;81.04;99125.88;5133754;28;20035;-79
2022/09/27 02:08:55;;;;;;;0.93;0.88;;;;;;;10.94;80.20;99131.03;5154278;28;20022;-80
2022/09/27 02:11:26;;;;;;;0.20;0.20;;;;;;;10.91;80.54;99133.84;5172703;28;20090;-80
2022/09/27 02:14:01;;;;;;;0.30;0.30;;;;;;;10.95;79.73;99128.31;5148547;28;20029;-80
2022/09/27 02:16:37;;;;;;;1.60;0.95;;;;;;;11.07;79.54;99133.84;5127579;28;20038;-80
2022/09/27 02:19:29;;;;;;;0.30;0.30;;;;;;;11.05;79.19;99139.19;5129107;28;20046;-80
2022/09/27 02:22:17;;;;;;;0.50;0.50;;;;;;;10.96;80.48;99142.31;5125475;28;20784;-80
2022/09/27 02:25:00;;;;;;;0.22;0.22;;;;;;;10.86;80.55;99141.97;5149004;28;20042;-80
2022/09/27 02:27:53;;;;;;;0.30;0.30;;;;;;;10.74;81.38;99148.72;5122020;28;20103;-82
2022/09/27 02:30:24;;;;;;;0.30;0.30;;;;;;;10.82;80.63;99143.06;5128904;28;20050;-79
2022/09/27 02:32:55;;;;;;;0.50;0.50;;;;;;;10.88;79.59;99147.13;5138833;28;20538;-80
2022/09/27 02:35:31;;;;;;;0.20;0.20;;;;;;;10.91;79.21;99147.81;5125598;28;20042;-80
2022/09/27 02:38:04;;;;;;;1.85;0.73;;;;;;;10.89;79.86;99147.03;5127142;28;20046;-80
2022/09/27 02:40:42;;;;;;;0.65;0.65;;;;;;;10.95;79.39;99149.31;5106956;28;20097;-80
2022/09/27 02:43:16;;;;;;;0.52;0.52;;;;;;;11.00;78.86;99160.44;5132867;28;20081;-80
2022/09/27 02:46:17;;;;;;;0.20;0.20;;;;;;;10.91;78.83;99153.06;5129739;28;20077;-80
2022/09/27 02:48:57;;;;;;;0.25;0.25;;;;;;;10.89;78.97;99160.16;5115287;28;20034;-80
2022/09/27 02:51:55;;;;;;;0.30;0.30;;;;;;;10.75;79.82;99167.91;5126570;28;20027;-80
2022/09/27 02:54:41;;;;;;;0.20;0.20;;;;;;;10.81;79.53;99165.81;5113394;28;20121;-80
2022/09/27 02:57:51;;;;;;;0.30;0.30;;;;;;;10.96;78.07;99169.38;5113321;28;20034;-80
2022/09/27 03:00:30;;;;;;;0.28;0.28;;;;;;;10.89;77.96;99170.66;5124976;28;20042;-80
2022/09/27 03:03:18;;;;;;;0.20;0.20;;;;;;;10.92;77.85;99177.50;5114585;28;20052;-80
2022/09/27 03:06:09;;;;;;;0.20;0.20;;;;;;;10.84;78.02;99175.31;5119769;28;20051;-80
2022/09/27 03:08:48;;;;;;;0.40;0.40;;;;;;;10.89;78.10;99170.66;5132249;28;20070;-80
2022/09/27 03:11:19;;;;;;;0.25;0.25;;;;;;;10.79;77.84;99180.78;5111002;28;20068;-79
2022/09/27 03:13:50;;;;;;;0.20;0.20;;;;;;;10.78;78.47;99184.34;5111797;28;20030;-79
2022/09/27 03:16:20;;;;;;;0.20;0.20;;;;;;;10.87;77.59;99177.75;5113150;28;20071;-79
2022/09/27 03:18:51;;;;;;;0.20;0.20;;;;;;;10.54;79.49;99173.34;5126158;28;20428;-80
2022/09/27 03:21:21;;;;;;;0.20;0.20;;;;;;;10.68;78.75;99183.13;5109660;28;20042;-80
2022/09/27 03:23:52;;;;;;;0.45;0.45;;;;;;;10.45;79.84;99182.53;5130427;28;20510;-79
2022/09/27 03:26:22;;;;;;;0.30;0.30;;;;;;;10.43;80.84;99173.06;5114159;28;20427;-80
2022/09/27 03:28:53;;;;;;;0.45;0.45;;;;;;;10.51;79.39;99181.38;5113658;28;20049;-80
2022/09/27 03:31:24;;;;;;;0.20;0.20;;;;;;;10.50;79.74;99175.28;5121600;28;20026;-80
2022/09/27 03:33:54;;;;;;;0.20;0.20;;;;;;;10.49;79.00;99186.72;5127168;28;20069;-80
2022/09/27 03:36:26;;;;;;;0.30;0.30;;;;;;;10.40;80.21;99189.81;5143368;28;20041;-80
2022/09/27 03:38:57;;;;;;;0.55;0.50;;;;;;;10.47;79.16;99191.19;5111814;28;20035;-79
2022/09/27 03:41:28;;;;;;;0.20;0.20;;;;;;;10.47;79.25;99195.56;5115134;28;20034;-80
2022/09/27 03:43:59;;;;;;;0.73;0.73;;;;;;;10.35;79.46;99191.75;5110646;28;20459;-79
2022/09/27 03:46:29;;;;;;;0.30;0.30;;;;;;;10.34;79.58;99196.16;5130913;28;20038;-80
2022/09/27 03:49:00;;;;;;;0.30;0.30;;;;;;;10.17;80.24;99188.31;5109444;28;20074;-79
2022/09/27 03:51:31;;;;;;;0.20;0.20;;;;;;;10.13;80.95;99186.75;5113255;28;20049;-79
2022/09/27 03:54:01;;;;;;;0.45;0.45;;;;;;;10.15;80.01;99191.00;5111067;28;20097;-79
2022/09/27 03:56:32;;;;;;;1.95;0.63;;;;;;;10.23;79.86;99188.84;5109452;28;20380;-80
2022/09/27 03:59:02;;;;;;;0.30;0.30;;;;;;;10.15;79.65;99198.00;5123682;28;20057;-80
2022/09/27 04:01:35;;;;;;;0.32;0.32;;;;;;;10.17;79.30;99196.16;5107100;28;20469;-79
2022/09/27 04:04:08;;;;;;;2.63;1.05;;;;;;;10.17;79.32;99194.38;5131014;28;20074;-79
2022/09/27 04:06:41;;;;;;;0.30;0.30;;;;;;;10.21;79.47;99189.84;5125265;28;20069;-79
2022/09/27 04:09:12;;;;;;;0.40;0.40;;;;;;;10.18;79.24;99187.38;5126511;28;20053;-80
2022/09/27 04:11:42;;;;;;;1.10;0.75;;;;;;;10.05;79.66;99190.59;5132908;28;20278;-79
2022/09/27 04:14:13;;;;;;;0.20;0.20;;;;;;;10.11;80.08;99188.63;5133159;28;20061;-79
2022/09/27 04:16:43;;;;;;;3.63;2.28;;;;;;;10.04;80.00;99190.69;5125649;28;20030;-79
2022/09/27 04:19:14;;;;;;;0.73;0.73;;;;;;;10.07;79.67;99188.75;5124932;28;20077;-79
2022/09/27 04:21:45;;;;;;;0.20;0.20;;;;;;;10.06;79.62;99197.53;5129014;28;20113;-78
2022/09/27 04:24:15;;;;;;;0.52;0.52;;;;;;;10.06;80.08;99181.81;5156855;28;20511;-80
2022/09/27 04:26:48;;;;;;;0.20;0.20;;;;;;;10.10;79.62;99186.91;5140152;28;20555;-80
2022/09/27 04:29:18;;;;;;;0.40;0.40;;;;;;;9.96;80.83;99191.06;5111623;28;20046;-80
2022/09/27 04:31:49;;;;;;;0.20;0.20;;;;;;;10.08;80.03;99192.25;5116020;28;20041;-80
2022/09/27 04:36:25;;;;;;;0.20;0.20;;;;;;;9.94;80.04;99192.91;5113773;28;20438;-80
2022/09/27 04:37:10;;;;;;;0.52;0.52;;;;;;;10.05;79.82;99190.59;5133163;28;20046;-80
2022/09/27 04:39:41;;;;;;;0.30;0.30;;;;;;;9.98;79.92;99181.34;5140459;28;20632;-81
2022/09/27 04:42:11;;;;;;;2.05;1.15;;;;;;;9.96;80.10;99191.06;5134510;28;20039;-81
2022/09/27 04:44:42;;;;;;;0.25;0.25;;;;;;;10.10;79.37;99197.41;5111337;28;20490;-81
2022/09/27 04:47:13;;;;;;;0.20;0.20;;;;;;;10.00;79.58;99197.84;5116240;28;20049;-81
2022/09/27 04:49:43;;;;;;;0.28;0.28;;;;;;;9.95;80.05;99205.09;5139082;28;20058;-80
2022/09/27 04:52:14;;;;;;;0.55;0.45;;;;;;;9.88;79.30;99215.03;5118422;28;20462;-80
2022/09/27 04:54:44;;;;;;;0.70;0.70;;;;;;;9.85;79.49;99214.31;5163952;28;20046;-80
2022/09/27 04:57:15;;;;;;;0.20;0.20;;;;;;;10.03;79.33;99213.44;5134138;28;20097;-81
2022/09/27 04:59:45;;;;;;;0.20;0.20;;;;;;;9.95;79.15;99214.72;5126541;28;20062;-80
2022/09/27 05:02:17;;;;;;;0.20;0.20;;;;;;;9.97;78.79;99218.94;5113536;28;20524;-80
2022/09/27 05:04:48;;;;;;;0.20;0.20;;;;;;;9.96;78.40;99216.41;5134186;28;20113;-80
2022/09/27 05:07:18;;;;;;;0.20;0.20;;;;;;;9.86;79.01;99216.03;5130564;28;20207;-80
2022/09/27 05:09:49;;;;;;;0.43;0.43;;;;;;;9.74;79.25;99217.47;5143350;28;20058;-81
2022/09/27 05:12:25;;;;;;;0.20;0.20;;;;;;;9.69;79.36;99220.28;5116873;28;20039;-80
2022/09/27 05:14:56;;;;;;;0.30;0.30;;;;;;;9.82;78.65;99219.69;5115250;28;20053;-80
2022/09/27 05:17:26;;;;;;;6.30;1.00;;;;;;;9.68;79.00;99228.19;5153280;28;20046;-81
2022/09/27 05:19:57;;;;;;;0.40;0.40;;;;;;;9.74;78.75;99235.78;5131572;28;20042;-82
2022/09/27 05:22:27;;;;;;;0.20;0.20;;;;;;;9.67;78.86;99235.22;5136367;28;20077;-81
2022/09/27 05:24:58;;;;;;;0.30;0.30;;;;;;;9.67;78.16;99240.47;5125010;28;20053;-81
2022/09/27 05:27:29;;;;;;;0.30;0.30;;;;;;;9.71;78.43;99252.47;5170958;28;20026;-81
2022/09/27 05:30:00;;;;;;;0.20;0.20;;;;;;;9.76;78.43;99258.38;5136755;28;20104;-81
2022/09/27 05:32:31;;;;;;;2.00;1.80;;;;;;;9.71;78.95;99254.25;5116455;28;20120;-81
2022/09/27 05:35:01;;;;;;;0.20;0.20;;;;;;;9.77;78.52;99257.44;5129105;28;20046;-82
2022/09/27 05:37:33;;;;;;;0.95;0.50;;;;;;;9.76;78.27;99263.59;5148281;28;20065;-81
2022/09/27 05:40:03;;;;;;;0.30;0.30;;;;;;;9.79;78.19;99267.00;5134525;28;20303;-81
2022/09/27 05:42:38;;;;;;;0.25;0.25;;;;;;;9.74;78.70;99260.19;5131952;28;20026;-81
2022/09/27 05:45:09;;;;;;;0.77;0.77;;;;;;;9.57;79.62;99265.38;5108446;28;20056;-81
2022/09/27 05:47:40;;;;;;;0.20;0.20;;;;;;;9.57;79.79;99265.38;5117911;28;20038;-81
2022/09/27 05:50:10;;;;;;;0.30;0.30;;;;;;;9.61;79.75;99261.72;5147342;28;20130;-81
2022/09/27 05:52:41;;;;;;;0.55;0.55;;;;;;;9.60;79.69;99257.38;5112594;28;20125;-81
2022/09/27 05:55:11;;;;;;;0.40;0.40;;;;;;;9.64;79.72;99266.78;5135707;28;20089;-81
2022/09/27 05:57:52;;;;;;;0.30;0.30;;;;;;;9.71;79.18;99265.56;5132145;28;20042;-81
2022/09/27 06:00:24;;;;;;;0.20;0.20;;;;;;;9.65;79.38;99265.03;5117934;28;20554;-81
2022/09/27 06:02:57;;;;;;;0.20;0.20;;;;;;;9.67;79.36;99260.59;5153869;28;20120;-81
2022/09/27 06:05:30;;;;;;;0.30;0.30;;;;;;;9.72;79.35;99267.28;5136154;28;20053;-81
2022/09/27 06:08:07;;;;;;;0.30;0.30;;;;;;;9.75;79.37;99268.94;5146786;28;20042;-81
2022/09/27 06:10:39;;;;;;;0.30;0.30;;;;;;;9.60;80.12;99263.47;5118890;28;20518;-81
2022/09/27 06:13:11;;;;;;;0.40;0.40;;;;;;;9.49;81.42;99259.66;5130603;28;20046;-81
2022/09/27 06:15:44;;;;;;;0.35;0.35;;;;;;;9.55;81.46;99270.69;5121183;28;20407;-81
2022/09/27 06:18:16;;;;;;;0.40;0.40;;;;;;;9.37;82.08;99261.94;5127492;28;20053;-81
2022/09/27 06:20:47;;;;;;;0.30;0.30;;;;;;;9.39;81.76;99265.28;5121505;28;20050;-81
2022/09/27 06:23:21;;;;;;;0.40;0.40;;;;;;;9.54;81.00;99263.75;5136298;28;20089;-80
2022/09/27 06:25:52;;;;;;;0.50;0.50;;;;;;;9.59;80.66;99264.38;5159986;28;20688;-80
2022/09/27 06:28:22;;;;;;;0.30;0.30;;;;;;;9.54;80.64;99269.00;5118493;28;20049;-80
2022/09/27 06:30:53;;;;;;;0.95;0.95;;;;;;;9.57;80.20;99266.25;5123066;28;20055;-80
2022/09/27 06:33:24;;;;;;;0.20;0.20;;;;;;;9.62;79.82;99268.66;5149478;28;20085;-80
2022/09/27 06:35:55;;;;;;;0.20;0.20;;;;;;;9.63;79.80;99269.47;5113142;28;20438;-80
2022/09/27 06:38:26;;;;;;;0.20;0.20;;;;;;;9.67;79.53;99271.88;5117050;28;20038;-80
2022/09/27 06:41:01;;;;;;;0.20;0.20;;;;;;;9.60;80.40;99275.72;5111231;28;20623;-80
2022/09/27 06:43:32;;;;;;;0.20;0.20;;;;;;;9.55;80.64;99280.31;5164545;28;20034;-80
2022/09/27 06:46:04;;;;;;;0.30;0.30;;;;;;;9.53;80.24;99277.75;5101321;28;20045;-80
2022/09/27 06:48:38;;;;;;;0.40;0.40;;;;;;;9.57;80.39;99274.09;5135232;28;20042;-80
2022/09/27 06:51:08;;;;;;;0.20;0.20;;;;;;;9.41;80.54;99281.78;5113729;28;20117;-80
2022/09/27 06:53:39;;;;;;;0.30;0.30;;;;;;;9.51;80.02;99278.75;5151862;28;20046;-80
2022/09/27 06:56:09;;;;;;;0.30;0.30;;;;;;;9.56;80.13;99284.63;5114868;28;20136;-80
2022/09/27 07:01:31;;;;;;;0.30;0.30;;;;;;;9.38;81.68;99288.94;5147669;28;20129;-80
2022/09/27 07:04:02;;;;;;;0.20;0.20;;;;;;;9.48;80.33;99297.22;5146917;28;20133;-80
2022/09/27 07:06:33;;;;;;;0.20;0.20;;;;;;;9.45;80.41;99291.22;5122222;28;20042;-80
2022/09/27 07:09:05;;;;;;;0.20;0.20;;;;;;;9.38;80.53;99296.78;5116002;28;20042;-80
2022/09/27 07:11:36;;;;;;;0.20;0.20;;;;;;;9.45;81.02;99293.84;5143827;28;20039;-80
2022/09/27 07:14:07;;;;;;;0.30;0.30;;;;;;;9.43;81.06;99292.19;5147651;28;20049;-80
2022/09/27 07:16:37;;;;;;;0.20;0.20;;;;;;;9.47;80.48;99299.00;5120142;28;20038;-80
2022/09/27 07:19:10;;;;;;;0.40;0.40;;;;;;;9.48;80.74;99295.47;5126024;28;20065;-80
2022/09/27 07:21:44;;;;;;;0.30;0.30;;;;;;;9.50;81.27;99308.47;5111057;28;20050;-80
2022/09/27 07:24:15;;;;;;;0.20;0.20;;;;;;;9.38;81.48;99302.88;5116826;28;20046;-80
2022/09/27 07:26:46;;;;;;;1.17;1.02;;;;;;;9.33;81.52;99307.47;5114672;28;20038;-80
2022/09/27 07:29:17;;;;;;;0.32;0.32;;;;;;;9.37;81.67;99319.50;5109243;28;20122;-80
2022/09/27 07:31:48;;;;;;;0.20;0.20;;;;;;;9.38;81.28;99323.81;5127944;28;20113;-80
2022/09/27 07:34:18;;;;;;;0.20;0.20;;;;;;;9.48;80.79;99328.63;5114445;28;20672;-80
2022/09/27 07:36:49;;;;;;;0.50;0.50;;;;;;;9.48;81.37;99323.41;5136033;28;20783;-80
2022/09/27 07:39:21;;;;;;;0.20;0.20;;;;;;;9.44;81.63;99318.31;5133424;28;20046;-80
2022/09/27 07:41:51;;;;;;;0.20;0.20;;;;;;;9.54;81.54;99320.53;5115235;28;20401;-80
2022/09/27 07:44:22;;;;;;;0.22;0.22;;;;;;;9.49;82.71;99325.09;5090336;28;20145;-80
2022/09/27 07:46:53;;;;;;;0.30;0.30;;;;;;;9.54;82.03;99331.00;5136861;28;20062;-81
2022/09/27 07:49:24;;;;;;;0.20;0.20;;;;;;;9.56;81.88;99321.28;5118524;28;20126;-80
2022/09/27 07:51:55;;;;;;;0.20;0.20;;;;;;;9.67;81.99;99332.13;5122346;28;20121;-80
2022/09/27 07:54:25;;;;;;;0.20;0.20;;;;;;;9.70;81.65;99334.63;5131103;28;20422;-80
2022/09/27 07:56:56;;;;;;;0.40;0.40;;;;;;;9.77;80.96;99330.78;5147614;28;20045;-80
2022/09/27 07:59:27;;;;;;;0.20;0.20;;;;;;;9.90;81.10;99336.31;5129223;28;20041;-80
2022/09/27 08:01:57;;;;;;;9.07;0.65;;;;;;;9.84;81.06;99343.59;5131450;28;20042;-80
2022/09/27 08:04:28;;;;;;;0.20;0.20;;;;;;;9.82;80.80;99341.06;5133250;28;20798;-79
2022/09/27 08:06:59;;;;;;;0.85;0.85;;;;;;;9.86;80.13;99345.22;5154167;28;20319;-80
2022/09/27 08:09:29;;;;;;;0.20;0.20;;;;;;;9.95;79.46;99343.09;5103461;28;20077;-79
2022/09/27 08:12:00;;;;;;;0.30;0.30;;;;;;;9.87;79.29;99341.69;5126763;28;20065;-79
2022/09/27 08:14:31;;;;;;;0.20;0.20;;;;;;;9.92;79.26;99357.19;5114382;28;20631;-79
2022/09/27 08:17:02;;;;;;;0.20;0.20;;;;;;;10.00;78.95;99349.00;5121164;28;20087;-80
2022/09/27 08:19:32;;;;;;;0.30;0.30;;;;;;;9.97;78.87;99352.59;5141850;28;20048;-80
2022/09/27 08:22:03;;;;;;;0.40;0.40;;;;;;;10.08;78.53;99357.34;5130067;28;20034;-80
2022/09/27 08:24:34;;;;;;;0.20;0.20;;;;;;;10.10;78.52;99359.88;5131348;28;20050;-80
2022/09/27 08:27:06;;;;;;;0.30;0.30;;;;;;;10.12;78.91;99360.66;5127654;28;20038;-80
2022/09/27 08:29:40;;;;;;;0.30;0.30;;;;;;;10.16;79.30;99349.09;5122623;28;20042;-79
2022/09/27 08:32:14;;;;;;;0.30;0.30;;;;;;;10.18;79.31;99363.00;5146351;28;20105;-80
2022/09/27 08:34:44;;;;;;;0.20;0.20;;;;;;;10.18;78.98;99358.59;5137212;28;20042;-80
2022/09/27 08:37:16;;;;;;;1.40;0.75;;;;;;;10.17;78.78;99361.28;5117562;28;20035;-80
2022/09/27 08:39:49;;;;;;;0.30;0.30;;;;;;;10.33;78.73;99364.88;5147358;28;20043;-79
2022/09/27 08:42:38;;;;;;;0.28;0.28;;;;;;;10.36;77.99;99370.00;5115272;28;20089;-80
2022/09/27 08:45:12;;;;;;;0.20;0.20;;;;;;;10.25;78.62;99374.88;5114573;28;20415;-80
2022/09/27 08:47:47;;;;;;;0.30;0.30;;;;;;;10.43;78.09;99370.56;5117578;28;20038;-80
2022/09/27 08:50:37;;;;;;;0.20;0.20;;;;;;;10.39;78.24;99374.28;5136338;28;20050;-80
2022/09/27 08:53:27;;;;;;;0.25;0.25;;;;;;;10.45;78.45;99375.75;5119583;28;20097;-81
2022/09/27 08:56:01;;;;;;;0.20;0.20;;;;;;;10.39;78.00;99375.09;5151620;28;20686;-81
2022/09/27 08:58:36;;;;;;;0.20;0.20;;;;;;;10.51;77.66;99381.53;5131109;28;20515;-80
2022/09/27 09:01:14;;;;;;;0.20;0.20;;;;;;;10.51;78.21;99381.53;5144040;28;20673;-81
2022/09/27 09:03:55;;;;;;;0.20;0.20;;;;;;;10.63;78.08;99384.50;5148539;28;20081;-81
2022/09/27 09:06:28;;;;;;;0.20;0.20;;;;;;;10.60;78.00;99379.38;5115250;28;20664;-81
2022/09/27 09:09:14;;;;;;;;;;;;;;;10.56;77.56;99370.81;5149728;28;20038;-81
2022/09/27 09:14:58;;;;;;;0.30;0.30;;;;;;;10.54;77.03;99372.66;5169540;28;20044;-79
2022/09/27 09:17:40;;;;;;;0.20;0.20;;;;;;;10.62;77.33;99377.53;5117471;28;20069;-79
2022/09/27 09:20:32;;;;;;;0.35;0.35;;;;;;;10.63;78.12;99380.09;5117326;28;20062;-80
2022/09/27 09:23:21;;;;;;;0.65;0.65;;;;;;;10.69;76.21;99374.56;5153010;28;20061;-81
2022/09/27 09:26:23;;;;;;;0.82;0.82;;;;;;;10.78;76.13;99372.41;5152767;28;20113;-81
2022/09/27 09:29:07;;;;;;;0.30;0.30;;;;;;;10.78;76.51;99377.66;5135654;28;20027;-81
2022/09/27 09:31:52;;;;;;;0.47;0.47;;;;;;;10.87;75.97;99374.53;5156475;28;20022;-82
2022/09/27 09:34:28;;;;;;;0.30;0.30;;;;;;;10.89;76.64;99367.44;5131010;28;20061;-81
2022/09/27 09:37:10;;;;;;;0.30;0.30;;;;;;;10.92;76.03;99380.44;5134379;28;20037;-81
2022/09/27 09:39:54;;;;;;;0.20;0.20;;;;;;;10.99;75.09;99370.50;5126792;28;20054;-80
2022/09/27 09:42:34;;;;;;;0.20;0.20;;;;;;;10.98;76.28;99374.88;5133371;28;20499;-79
2022/09/27 09:45:24;;;;;;;0.20;0.20;;;;;;;11.17;76.00;99363.44;5129121;28;20054;-80
2022/09/27 09:48:16;;;;;;;0.20;0.20;;;;;;;11.21;75.84;99362.34;5126288;28;20390;-80
2022/09/27 09:50:50;;;;;;;0.68;0.68;;;;;;;11.24;74.72;99363.97;5148842;28;20380;-80
2022/09/27 09:53:27;;;;;;;0.30;0.30;;;;;;;11.26;75.23;99362.97;5122367;28;20042;-80
2022/09/27 09:56:31;;;;;;;0.30;0.30;;;;;;;11.32;75.52;99357.38;5137521;28;20137;-79
2022/09/27 09:59:11;;;;;;;0.20;0.20;;;;;;;11.25;76.35;99366.53;5120759;28;20058;-79
2022/09/27 10:01:44;;;;;;;0.28;0.28;;;;;;;11.21;77.46;99359.72;5097098;28;20034;-80
2022/09/27 10:04:27;;;;;;;0.40;0.40;;;;;;;11.17;77.71;99352.94;5108360;28;20057;-80
2022/09/27 10:07:00;;;;;;;0.30;0.30;;;;;;;11.23;77.36;99357.03;5113253;28;20077;-80
2022/09/27 10:09:33;;;;;;;0.20;0.20;;;;;;;11.24;78.34;99354.31;5110806;28;20051;-80
2022/09/27 10:12:04;;;;;;;;;;;;;;;11.38;77.24;99358.00;5094125;28;20285;-80
2022/09/27 10:14:35;;;;;;;0.30;0.30;;;;;;;11.34;77.07;99350.28;5110824;28;19922;-80
2022/09/27 10:17:13;;;;;;;0.20;0.20;;;;;;;11.29;75.96;99347.03;5093837;28;20055;-80
2022/09/27 10:19:47;;;;;;;0.30;0.30;;;;;;;11.40;76.18;99348.25;5128330;28;20050;-80
2022/09/27 10:22:21;;;;;;;0.30;0.30;;;;;;;11.51;76.20;99345.94;5106869;28;20105;-80
2022/09/27 10:24:52;;;;;;;0.93;0.93;;;;;;;11.44;75.81;99341.94;5092962;28;20039;-80
2022/09/27 10:27:26;;;;;;;0.22;0.22;;;;;;;11.40;76.21;99343.88;5117720;28;20038;-81
2022/09/27 10:29:58;;;;;;;0.40;0.40;;;;;;;11.39;76.08;99351.81;5108313;28;20071;-80
2022/09/27 10:32:35;;;;;;;0.60;0.60;;;;;;;11.43;76.62;99351.56;5108856;28;20454;-80
2022/09/27 10:35:34;;;;;;;0.30;0.30;;;;;;;11.43;76.25;99341.06;5092460;28;20102;-80
2022/09/27 10:38:32;;;;;;;0.82;0.82;;;;;;;11.53;75.85;99338.78;5104235;28;20699;-81
2022/09/27 10:41:23;;;;;;;0.43;0.43;;;;;;;11.61;75.53;99341.84;5114433;28;20039;-80
2022/09/27 10:43:54;;;;;;;0.60;0.57;;;;;;;11.57;75.85;99339.50;5110522;28;20039;-80
2022/09/27 10:46:31;;;;;;;0.28;0.28;;;;;;;11.54;76.00;99335.25;5126028;28;20027;-80
2022/09/27 10:49:08;;;;;;;0.30;0.30;;;;;;;11.36;75.95;99346.75;5091303;28;20383;-80
2022/09/27 10:51:38;;;;;;;9.25;2.13;;;;;;;11.33;75.72;99338.09;5097199;28;20498;-80
2022/09/27 10:54:26;;;;;;;0.70;0.70;;;;;;;11.43;75.79;99332.34;5091174;28;20058;-81
2022/09/27 10:56:59;;;;;;;0.30;0.30;;;;;;;11.31;75.43;99334.69;5131320;28;20079;-81
2022/09/27 10:59:35;;;;;;;0.47;0.47;;;;;;;11.34;76.23;99334.53;5112321;28;20046;-81
2022/09/27 11:02:19;;;;;;;0.30;0.30;;;;;;;11.40;76.50;99333.38;5123262;28;20069;-80
2022/09/27 11:05:28;;;;;;;0.50;0.50;;;;;;;11.51;76.04;99335.44;5144666;28;20077;-80
2022/09/27 11:08:02;;;;;;;0.20;0.20;;;;;;;11.52;76.44;99331.88;5132948;28;20038;-81
2022/09/27 11:10:35;;;;;;;0.40;0.40;;;;;;;11.50;75.59;99328.47;5125732;28;20049;-81
2022/09/27 11:13:12;;;;;;;0.30;0.30;;;;;;;11.43;75.59;99329.72;5138092;28;20053;-80
2022/09/27 11:15:48;;;;;;;0.22;0.22;;;;;;;11.60;75.83;99327.06;5144231;28;20048;-80
2022/09/27 11:18:32;;;;;;;0.30;0.30;;;;;;;11.54;74.83;99327.34;5122541;28;20538;-80
2022/09/27 11:21:23;;;;;;;0.30;0.30;;;;;;;11.56;75.07;99322.88;5127197;28;20610;-80
2022/09/27 11:24:09;;;;;;;0.30;0.30;;;;;;;11.62;75.10;99324.34;5130645;28;20575;-81
2022/09/27 11:26:49;;;;;;;0.25;0.25;;;;;;;11.68;74.32;99325.78;5116834;28;20046;-82
2022/09/27 11:29:31;;;;;;;0.20;0.20;;;;;;;11.71;74.26;99330.84;5147827;28;20082;-82
2022/09/27 11:32:36;;;;;;;1.17;0.77;;;;;;;11.79;74.61;99323.41;5145007;28;20081;-80
2022/09/27 11:35:20;;;;;;;0.30;0.30;;;;;;;11.72;74.60;99327.31;5141580;28;20148;-80
2022/09/27 11:38:16;;;;;;;0.20;0.20;;;;;;;11.83;74.69;99319.69;5128335;28;20034;-80
2022/09/27 11:40:47;;;;;;;0.80;0.80;;;;;;;11.95;74.35;99318.16;5110601;28;20042;-79
2022/09/27 11:43:27;;;;;;;0.30;0.30;;;;;;;12.04;73.48;99325.59;5135990;28;20034;-81
2022/09/27 11:46:22;;;;;;;0.30;0.30;;;;;;;12.06;72.57;99325.50;5123242;28;20074;-81
2022/09/27 11:48:59;;;;;;;0.20;0.20;;;;;;;12.02;71.02;99313.47;5121270;28;20073;-81
2022/09/27 11:51:55;;;;;;;0.30;0.30;;;;;;;12.11;71.94;99307.66;5148446;28;20034;-81
2022/09/27 11:54:45;;;;;;;0.20;0.20;;;;;;;12.13;71.00;99311.06;5152604;28;20042;-81
2022/09/27 11:57:30;;;;;;;0.20;0.20;;;;;;;12.01;71.52;99304.72;5152278;28;20043;-80
2022/09/27 12:00:16;;;;;;;1.75;1.05;;;;;;;12.03;70.58;99310.75;5115820;28;20125;-80
2022/09/27 12:03:19;;;;;;;0.30;0.30;;;;;;;12.07;70.45;99314.03;5168757;28;20038;-80
2022/09/27 12:06:14;;;;;;;0.20;0.20;;;;;;;12.30;71.14;99307.50;5118438;28;20033;-80
2022/09/27 12:09:06;;;;;;;0.20;0.20;;;;;;;12.26;71.06;99308.59;5135865;28;20768;-82
2022/09/27 12:11:51;;;;;;;0.20;0.20;;;;;;;12.22;73.54;99315.81;5122381;28;20074;-82
2022/09/27 12:14:24;;;;;;;0.20;0.20;;;;;;;12.20;73.30;99320.28;5116490;28;20116;-82
2022/09/27 12:16:58;;;;;;;0.20;0.20;;;;;;;12.21;73.23;99322.00;5144598;28;20507;-81
2022/09/27 12:19:34;;;;;;;0.22;0.22;;;;;;;12.16;73.03;99321.41;5139930;28;20079;-81
2022/09/27 12:22:11;;;;;;;0.40;0.40;;;;;;;12.10;73.87;99322.59;5133409;28;20041;-81
2022/09/27 12:24:44;;;;;;;0.40;0.40;;;;;;;12.03;73.81;99329.16;5148289;28;20037;-82